Time,TemperatureF,DewpointF,PressureIn,WindDirection,WindDirectionDegrees,WindSpeedMPH,WindSpeedGustMPH,Humidity,HourlyPrecipIn,Conditions,Clouds,dailyrainin,SoftwareType,DateUTC
2013-01-31 00:02:00,51.0,49.6,29.42,SW,222,2.0,5.0,95,0.08,,---,0.00,VWS V14.01,2013-01-31 05:02:00,
2013-01-31 00:03:00,51.0,49.6,29.42,SW,233,3.0,5.0,95,0.08,,---,0.00,VWS V14.01,2013-01-31 05:03:00,
2013-01-31 00:08:00,50.9,49.5,29.41,South,184,4.0,6.0,95,0.10,,---,0.02,VWS V14.01,2013-01-31 05:08:00,
2013-01-31 00:13:00,50.7,49.3,29.40,SSW,192,4.0,6.0,95,0.10,,---,0.02,VWS V14.01,2013-01-31 05:13:00,
2013-01-31 00:18:00,50.7,49.3,29.40,South,189,3.0,6.0,95,0.07,,---,0.02,VWS V14.01,2013-01-31 05:18:00,
2013-01-31 00:23:00,50.6,49.2,29.41,SSW,209,1.0,4.0,95,0.07,,---,0.02,VWS V14.01,2013-01-31 05:23:00,
2013-01-31 00:28:00,50.4,49.3,29.42,SSW,196,4.0,5.0,96,0.07,,---,0.02,VWS V14.01,2013-01-31 05:28:00,
2013-01-31 00:33:00,50.3,49.2,29.42,SSW,209,5.0,6.0,96,0.05,,---,0.02,VWS V14.01,2013-01-31 05:33:00,
2013-01-31 00:38:00,50.4,48.7,29.41,SW,225,3.0,6.0,94,0.05,,---,0.02,VWS V14.01,2013-01-31 05:38:00,
2013-01-31 00:43:00,50.8,48.6,29.40,NW,309,5.0,16.0,92,0.05,,---,0.02,VWS V14.01,2013-01-31 05:43:00,
2013-01-31 00:48:00,52.0,47.0,29.40,SSW,205,3.0,19.0,83,0.03,,---,0.02,VWS V14.01,2013-01-31 05:48:00,
2013-01-31 00:53:00,52.2,48.2,29.39,SW,223,4.0,10.0,86,0.04,,---,0.03,VWS V14.01,2013-01-31 05:53:00,
2013-01-31 00:58:00,51.7,47.7,29.38,SW,236,4.0,13.0,86,0.04,,---,0.03,VWS V14.01,2013-01-31 05:58:00,
2013-01-31 01:03:00,51.4,47.4,29.40,West,274,2.0,8.0,86,0.03,,---,0.03,VWS V14.01,2013-01-31 06:03:00,
2013-01-31 01:08:00,51.2,47.5,29.41,SW,223,2.0,5.0,87,0.03,,---,0.03,VWS V14.01,2013-01-31 06:08:00,
2013-01-31 01:13:00,51.0,47.6,29.42,NW,304,2.0,5.0,88,0.03,,---,0.03,VWS V14.01,2013-01-31 06:13:00,
2013-01-31 01:18:00,50.8,47.4,29.41,NNW,338,7.0,8.0,88,0.01,,---,0.03,VWS V14.01,2013-01-31 06:18:00,
2013-01-31 01:23:00,50.6,47.5,29.42,SSW,193,3.0,7.0,89,0.01,,---,0.03,VWS V14.01,2013-01-31 06:23:00,
2013-01-31 01:28:00,50.4,47.0,29.43,West,259,5.0,9.0,88,0.01,,---,0.03,VWS V14.01,2013-01-31 06:28:00,
2013-01-31 01:33:00,50.2,46.2,29.44,SW,234,5.0,9.0,86,0.01,,---,0.03,VWS V14.01,2013-01-31 06:33:00,
2013-01-31 01:38:00,50.1,45.5,29.43,West,277,3.0,8.0,84,0.01,,---,0.03,VWS V14.01,2013-01-31 06:38:00,
2013-01-31 01:43:00,50.0,45.0,29.42,West,261,3.0,6.0,83,0.01,,---,0.03,VWS V14.01,2013-01-31 06:43:00,
2013-01-31 01:48:00,49.9,45.0,29.41,West,277,2.0,8.0,83,0.01,,---,0.03,VWS V14.01,2013-01-31 06:48:00,
2013-01-31 01:53:00,49.8,44.5,29.42,WSW,253,3.0,9.0,82,0.01,,---,0.03,VWS V14.01,2013-01-31 06:53:00,
2013-01-31 01:58:00,49.7,43.8,29.42,SSW,203,5.0,12.0,80,0.01,,---,0.03,VWS V14.01,2013-01-31 06:58:00,
2013-01-31 02:03:00,49.7,43.5,29.43,SW,233,5.0,11.0,79,0.00,,---,0.03,VWS V14.01,2013-01-31 07:03:00,
2013-01-31 02:08:00,49.4,42.8,29.43,WNW,302,7.0,12.0,78,0.00,,---,0.03,VWS V14.01,2013-01-31 07:08:00,
2013-01-31 02:13:00,49.4,43.2,29.43,WSW,258,4.0,9.0,79,0.00,,---,0.03,VWS V14.01,2013-01-31 07:13:00,
2013-01-31 02:18:00,49.4,43.2,29.44,NNW,340,3.0,14.0,79,0.00,,---,0.03,VWS V14.01,2013-01-31 07:18:00,
2013-01-31 02:23:00,49.2,43.3,29.45,WNW,298,8.0,16.0,80,0.00,,---,0.03,VWS V14.01,2013-01-31 07:23:00,
2013-01-31 02:28:00,48.6,42.1,29.45,NW,312,7.0,13.0,78,0.00,,---,0.03,VWS V14.01,2013-01-31 07:28:00,
2013-01-31 02:33:00,47.8,40.6,29.45,WNW,292,2.0,12.0,76,0.00,,---,0.03,VWS V14.01,2013-01-31 07:33:00,
2013-01-31 02:38:00,47.1,38.9,29.45,NW,309,3.0,21.0,73,0.00,,---,0.03,VWS V14.01,2013-01-31 07:38:00,
2013-01-31 02:43:00,46.7,38.9,29.45,NW,317,4.0,11.0,74,0.00,,---,0.03,VWS V14.01,2013-01-31 07:43:00,
2013-01-31 02:48:00,46.3,38.8,29.45,NNW,348,1.0,14.0,75,0.00,,---,0.03,VWS V14.01,2013-01-31 07:48:00,
2013-01-31 02:53:00,46.0,37.8,29.45,WNW,292,5.0,15.0,73,0.00,,---,0.03,VWS V14.01,2013-01-31 07:53:00,
2013-01-31 02:58:00,45.7,37.9,29.45,NW,314,4.0,7.0,74,0.00,,---,0.03,VWS V14.01,2013-01-31 07:58:00,
2013-01-31 03:03:00,45.6,37.1,29.45,SW,231,9.0,16.0,72,0.00,,---,0.03,VWS V14.01,2013-01-31 08:03:00,
2013-01-31 03:08:00,45.6,37.1,29.46,NW,312,3.0,11.0,72,0.00,,---,0.03,VWS V14.01,2013-01-31 08:08:00,
2013-01-31 03:13:00,45.5,37.4,29.46,WSW,238,4.0,12.0,73,0.00,,---,0.03,VWS V14.01,2013-01-31 08:13:00,
2013-01-31 03:18:00,45.3,37.2,29.46,WNW,293,4.0,11.0,73,0.00,,---,0.03,VWS V14.01,2013-01-31 08:18:00,
2013-01-31 03:23:00,45.1,37.3,29.46,WSW,245,6.0,11.0,74,0.00,,---,0.03,VWS V14.01,2013-01-31 08:23:00,
2013-01-31 03:28:00,44.9,37.1,29.46,NNW,337,6.0,14.0,74,0.00,,---,0.03,VWS V14.01,2013-01-31 08:28:00,
2013-01-31 03:33:00,45.0,37.2,29.45,NNW,344,15.0,16.0,74,0.00,,---,0.03,VWS V14.01,2013-01-31 08:33:00,
2013-01-31 03:38:00,45.0,36.9,29.47,North,360,4.0,15.0,73,0.00,,---,0.03,VWS V14.01,2013-01-31 08:38:00,
2013-01-31 03:43:00,44.9,37.5,29.47,West,274,6.0,9.0,75,0.00,,---,0.03,VWS V14.01,2013-01-31 08:43:00,
2013-01-31 03:48:00,44.9,37.1,29.47,North,351,2.0,16.0,74,0.00,,---,0.03,VWS V14.01,2013-01-31 08:48:00,
2013-01-31 03:53:00,44.7,37.3,29.48,West,259,14.0,14.0,75,0.00,,---,0.03,VWS V14.01,2013-01-31 08:53:00,
2013-01-31 03:58:00,44.5,36.7,29.48,NW,313,4.0,14.0,74,0.00,,---,0.03,VWS V14.01,2013-01-31 08:58:00,
2013-01-31 04:03:00,44.5,36.4,29.49,North,351,1.0,11.0,73,0.00,,---,0.03,VWS V14.01,2013-01-31 09:03:00,
2013-01-31 04:08:00,44.4,36.0,29.50,NNW,343,5.0,11.0,72,0.00,,---,0.03,VWS V14.01,2013-01-31 09:08:00,
2013-01-31 04:13:00,44.3,35.9,29.50,West,276,3.0,9.0,72,0.00,,---,0.03,VWS V14.01,2013-01-31 09:13:00,
2013-01-31 04:18:00,44.2,35.4,29.51,West,275,6.0,11.0,71,0.00,,---,0.03,VWS V14.01,2013-01-31 09:18:00,
2013-01-31 04:23:00,44.0,34.9,29.52,WSW,247,2.0,10.0,70,0.00,,---,0.03,VWS V14.01,2013-01-31 09:23:00,
2013-01-31 04:28:00,43.8,35.7,29.53,NNW,347,9.0,13.0,73,0.00,,---,0.03,VWS V14.01,2013-01-31 09:28:00,
2013-01-31 04:33:00,43.4,35.0,29.54,West,277,8.0,16.0,72,0.00,,---,0.03,VWS V14.01,2013-01-31 09:33:00,
2013-01-31 04:38:00,43.3,33.8,29.54,NW,315,4.0,17.0,69,0.00,,---,0.03,VWS V14.01,2013-01-31 09:38:00,
2013-01-31 04:43:00,43.1,32.9,29.55,NW,319,1.0,12.0,67,0.00,,---,0.03,VWS V14.01,2013-01-31 09:43:00,
2013-01-31 04:48:00,42.9,33.8,29.55,NNW,334,3.0,14.0,70,0.00,,---,0.03,VWS V14.01,2013-01-31 09:48:00,
2013-01-31 04:53:00,42.7,33.6,29.56,West,270,3.0,14.0,70,0.00,,---,0.03,VWS V14.01,2013-01-31 09:53:00,
2013-01-31 04:58:00,42.4,33.3,29.56,WNW,300,4.0,11.0,70,0.00,,---,0.03,VWS V14.01,2013-01-31 09:58:00,
2013-01-31 05:03:00,42.0,32.6,29.56,WNW,300,3.0,18.0,69,0.00,,---,0.03,VWS V14.01,2013-01-31 10:03:00,
2013-01-31 05:08:00,41.7,32.7,29.58,WSW,249,4.0,14.0,70,0.00,,---,0.03,VWS V14.01,2013-01-31 10:08:00,
2013-01-31 05:13:00,41.4,32.0,29.58,WSW,240,9.0,15.0,69,0.00,,---,0.03,VWS V14.01,2013-01-31 10:13:00,
2013-01-31 05:18:00,41.1,31.0,29.59,West,274,5.0,24.0,67,0.00,,---,0.03,VWS V14.01,2013-01-31 10:18:00,
2013-01-31 05:23:00,40.9,30.4,29.59,West,278,5.0,23.0,66,0.00,,---,0.03,VWS V14.01,2013-01-31 10:23:00,
2013-01-31 05:28:00,40.5,29.3,29.59,NW,325,11.0,29.0,64,0.00,,---,0.03,VWS V14.01,2013-01-31 10:28:00,
2013-01-31 05:32:00,40.3,28.7,29.60,NE,35,8.0,25.0,63,0.00,,---,0.03,VWS V14.01,2013-01-31 10:32:00,
2013-01-31 05:37:00,40.0,28.4,29.60,WNW,284,5.0,18.0,63,0.00,,---,0.03,VWS V14.01,2013-01-31 10:37:00,
2013-01-31 05:42:00,39.9,28.0,29.60,West,278,4.0,20.0,62,0.00,,---,0.03,VWS V14.01,2013-01-31 10:42:00,
2013-01-31 05:47:00,39.8,27.9,29.62,NW,313,6.0,14.0,62,0.00,,---,0.03,VWS V14.01,2013-01-31 10:47:00,
2013-01-31 05:52:00,39.6,28.4,29.62,WNW,297,1.0,15.0,64,0.00,,---,0.03,VWS V14.01,2013-01-31 10:52:00,
2013-01-31 05:57:00,39.4,28.2,29.62,NNW,338,4.0,10.0,64,0.00,,---,0.03,VWS V14.01,2013-01-31 10:57:00,
2013-01-31 06:02:00,39.3,29.6,29.62,WNW,283,2.0,14.0,68,0.00,,---,0.03,VWS V14.01,2013-01-31 11:02:00,
2013-01-31 06:07:00,39.2,26.9,29.63,NNW,331,8.0,14.0,61,0.00,,---,0.03,VWS V14.01,2013-01-31 11:07:00,
2013-01-31 06:12:00,39.3,27.0,29.63,North,350,7.0,19.0,61,0.00,,---,0.03,VWS V14.01,2013-01-31 11:12:00,
2013-01-31 06:17:00,39.2,26.9,29.63,NNE,15,4.0,14.0,61,0.00,,---,0.03,VWS V14.01,2013-01-31 11:17:00,
2013-01-31 06:22:00,39.0,27.1,29.64,NNW,331,8.0,13.0,62,0.00,,---,0.03,VWS V14.01,2013-01-31 11:22:00,
2013-01-31 06:27:00,38.6,27.1,29.64,North,355,5.0,12.0,63,0.00,,---,0.03,VWS V14.01,2013-01-31 11:27:00,
2013-01-31 06:32:00,38.4,25.7,29.65,WSW,254,3.0,16.0,60,0.00,,---,0.03,VWS V14.01,2013-01-31 11:32:00,
2013-01-31 06:37:00,38.4,24.9,29.66,NNW,335,8.0,12.0,58,0.00,,---,0.03,VWS V14.01,2013-01-31 11:37:00,
2013-01-31 06:42:00,38.3,24.8,29.66,NNW,337,9.0,18.0,58,0.00,,---,0.03,VWS V14.01,2013-01-31 11:42:00,
2013-01-31 06:47:00,38.2,25.1,29.66,NNW,346,8.0,10.0,59,0.00,,---,0.03,VWS V14.01,2013-01-31 11:47:00,
2013-01-31 06:52:00,38.2,25.1,29.66,NNW,330,6.0,13.0,59,0.00,,---,0.03,VWS V14.01,2013-01-31 11:52:00,
2013-01-31 06:57:00,38.2,26.0,29.67,West,263,5.0,9.0,61,0.00,,---,0.03,VWS V14.01,2013-01-31 11:57:00,
2013-01-31 07:02:00,38.0,26.1,29.67,NW,309,1.0,6.0,62,0.00,,---,0.03,VWS V14.01,2013-01-31 12:02:00,
2013-01-31 07:07:00,37.9,26.1,29.67,WNW,292,7.0,14.0,62,0.00,,---,0.03,VWS V14.01,2013-01-31 12:07:00,
2013-01-31 07:12:00,37.7,26.6,29.68,WSW,257,2.0,8.0,64,0.00,,---,0.03,VWS V14.01,2013-01-31 12:12:00,
2013-01-31 07:17:00,37.5,26.8,29.68,NNW,348,3.0,9.0,65,0.00,,---,0.03,VWS V14.01,2013-01-31 12:17:00,
2013-01-31 07:22:00,37.4,26.4,29.69,WNW,300,3.0,15.0,64,0.00,,---,0.03,VWS V14.01,2013-01-31 12:22:00,
2013-01-31 07:27:00,37.4,26.4,29.70,West,269,4.0,10.0,64,0.00,,---,0.03,VWS V14.01,2013-01-31 12:27:00,
2013-01-31 07:32:00,37.2,26.9,29.70,WNW,303,2.0,9.0,66,0.00,,---,0.03,VWS V14.01,2013-01-31 12:32:00,
2013-01-31 07:37:00,37.1,26.8,29.71,North,355,5.0,8.0,66,0.00,,---,0.03,VWS V14.01,2013-01-31 12:37:00,
2013-01-31 07:42:00,37.1,26.8,29.71,WSW,238,4.0,8.0,66,0.00,,---,0.03,VWS V14.01,2013-01-31 12:42:00,
2013-01-31 07:47:00,37.1,25.7,29.72,WNW,303,9.0,9.0,63,0.00,,---,0.03,VWS V14.01,2013-01-31 12:47:00,
2013-01-31 07:52:00,37.1,25.7,29.71,West,259,3.0,11.0,63,0.00,,---,0.03,VWS V14.01,2013-01-31 12:52:00,
2013-01-31 07:57:00,37.1,25.7,29.71,West,264,4.0,7.0,63,0.00,,---,0.03,VWS V14.01,2013-01-31 12:57:00,
2013-01-31 08:02:00,37.0,25.6,29.72,WNW,286,2.0,12.0,63,0.00,,---,0.03,VWS V14.01,2013-01-31 13:02:00,
2013-01-31 08:07:00,37.0,24.8,29.72,WNW,294,2.0,12.0,61,0.00,,---,0.03,VWS V14.01,2013-01-31 13:07:00,
2013-01-31 08:12:00,36.8,25.8,29.72,SW,234,4.0,10.0,64,0.00,,---,0.03,VWS V14.01,2013-01-31 13:12:00,
2013-01-31 08:17:00,36.9,24.3,29.73,WNW,287,3.0,9.0,60,0.00,,---,0.03,VWS V14.01,2013-01-31 13:17:00,
2013-01-31 08:22:00,37.0,25.6,29.72,WSW,249,6.0,7.0,63,0.00,,---,0.03,VWS V14.01,2013-01-31 13:22:00,
2013-01-31 08:27:00,37.0,24.8,29.73,NNW,327,1.0,13.0,61,0.00,,---,0.03,VWS V14.01,2013-01-31 13:27:00,
2013-01-31 08:32:00,36.9,24.7,29.73,SSW,194,2.0,7.0,61,0.00,,---,0.03,VWS V14.01,2013-01-31 13:32:00,
2013-01-31 08:37:00,36.8,26.5,29.73,SW,232,5.0,5.0,66,0.00,,---,0.03,VWS V14.01,2013-01-31 13:37:00,
2013-01-31 08:42:00,36.6,23.6,29.74,NW,308,2.0,15.0,59,0.00,,---,0.03,VWS V14.01,2013-01-31 13:42:00,
2013-01-31 08:47:00,36.7,23.7,29.75,NW,306,1.0,17.0,59,0.00,,---,0.03,VWS V14.01,2013-01-31 13:47:00,
2013-01-31 08:52:00,36.8,23.8,29.75,WSW,250,5.0,7.0,59,0.00,,---,0.03,VWS V14.01,2013-01-31 13:52:00,
2013-01-31 08:57:00,37.0,23.6,29.76,SSW,211,4.0,9.0,58,0.00,,---,0.03,VWS V14.01,2013-01-31 13:57:00,
2013-01-31 09:02:00,37.2,24.2,29.76,West,263,2.0,10.0,59,0.00,,---,0.03,VWS V14.01,2013-01-31 14:02:00,
2013-01-31 09:07:00,37.3,23.5,29.77,WSW,254,3.0,10.0,57,0.00,,---,0.03,VWS V14.01,2013-01-31 14:07:00,
2013-01-31 09:12:00,37.5,25.3,29.77,WNW,288,5.0,11.0,61,0.00,,---,0.03,VWS V14.01,2013-01-31 14:12:00,
2013-01-31 09:17:00,37.5,26.1,29.78,WSW,239,10.0,12.0,63,0.00,,---,0.03,VWS V14.01,2013-01-31 14:17:00,
2013-01-31 09:22:00,37.3,25.1,29.78,SSE,165,7.0,14.0,61,0.00,,---,0.03,VWS V14.01,2013-01-31 14:22:00,
2013-01-31 09:27:00,37.1,24.5,29.78,West,274,2.0,13.0,60,0.00,,---,0.03,VWS V14.01,2013-01-31 14:27:00,
2013-01-31 09:32:00,37.0,25.2,29.79,West,271,11.0,12.0,62,0.00,,---,0.03,VWS V14.01,2013-01-31 14:32:00,
2013-01-31 09:37:00,37.0,24.8,29.79,NW,306,9.0,11.0,61,0.00,,---,0.03,VWS V14.01,2013-01-31 14:37:00,
2013-01-31 09:42:00,37.1,24.1,29.79,WSW,244,2.0,13.0,59,0.00,,---,0.03,VWS V14.01,2013-01-31 14:42:00,
2013-01-31 09:47:00,37.2,25.0,29.80,SW,229,9.0,12.0,61,0.00,,---,0.03,VWS V14.01,2013-01-31 14:47:00,
2013-01-31 09:52:00,37.5,24.1,29.79,West,266,8.0,17.0,58,0.00,,---,0.03,VWS V14.01,2013-01-31 14:52:00,
2013-01-31 09:57:00,37.4,22.7,29.80,West,280,4.0,15.0,55,0.00,,---,0.03,VWS V14.01,2013-01-31 14:57:00,
2013-01-31 10:02:00,37.5,23.7,29.80,WNW,297,4.0,9.0,57,0.00,,---,0.03,VWS V14.01,2013-01-31 15:02:00,
2013-01-31 10:07:00,37.7,23.9,29.80,NNW,346,4.0,7.0,57,0.00,,---,0.03,VWS V14.01,2013-01-31 15:07:00,
2013-01-31 10:12:00,37.9,24.5,29.81,NNW,332,7.0,9.0,58,0.00,,---,0.03,VWS V14.01,2013-01-31 15:12:00,
2013-01-31 10:17:00,37.7,22.6,29.81,WNW,283,8.0,12.0,54,0.00,,---,0.03,VWS V14.01,2013-01-31 15:17:00,
2013-01-31 10:22:00,37.6,22.5,29.81,West,281,2.0,11.0,54,0.00,,---,0.03,VWS V14.01,2013-01-31 15:22:00,
2013-01-31 10:27:00,37.9,24.0,29.80,West,262,2.0,7.0,57,0.00,,---,0.03,VWS V14.01,2013-01-31 15:27:00,
2013-01-31 10:32:00,38.2,23.9,29.81,NNW,338,8.0,9.0,56,0.00,,---,0.03,VWS V14.01,2013-01-31 15:32:00,
2013-01-31 10:37:00,38.4,24.5,29.81,NW,311,6.0,12.0,57,0.00,,---,0.03,VWS V14.01,2013-01-31 15:37:00,
2013-01-31 10:42:00,38.6,23.0,29.81,NW,325,6.0,13.0,53,0.00,,---,0.03,VWS V14.01,2013-01-31 15:42:00,
2013-01-31 10:47:00,38.4,24.1,29.81,WSW,245,5.0,13.0,56,0.00,,---,0.03,VWS V14.01,2013-01-31 15:47:00,
2013-01-31 10:52:00,38.5,23.8,29.81,WSW,254,4.0,7.0,55,0.00,,---,0.03,VWS V14.01,2013-01-31 15:52:00,
2013-01-31 10:57:00,38.5,25.0,29.82,West,259,4.0,11.0,58,0.00,,---,0.03,VWS V14.01,2013-01-31 15:57:00,
2013-01-31 11:02:00,38.4,24.9,29.82,WNW,303,4.0,13.0,58,0.00,,---,0.03,VWS V14.01,2013-01-31 16:02:00,
2013-01-31 11:07:00,38.2,24.7,29.82,West,269,5.0,11.0,58,0.00,,---,0.03,VWS V14.01,2013-01-31 16:07:00,
2013-01-31 11:12:00,38.1,25.1,29.82,WSW,251,2.0,19.0,59,0.00,,---,0.03,VWS V14.01,2013-01-31 16:12:00,
2013-01-31 11:17:00,38.1,23.8,29.82,NW,306,4.0,14.0,56,0.00,,---,0.03,VWS V14.01,2013-01-31 16:17:00,
2013-01-31 11:22:00,38.1,23.8,29.82,WNW,284,4.0,12.0,56,0.00,,---,0.03,VWS V14.01,2013-01-31 16:22:00,
2013-01-31 11:27:00,38.4,23.2,29.82,SW,229,8.0,14.0,54,0.00,,---,0.03,VWS V14.01,2013-01-31 16:27:00,
2013-01-31 11:32:00,38.6,23.4,29.82,West,263,5.0,14.0,54,0.00,,---,0.03,VWS V14.01,2013-01-31 16:32:00,
2013-01-31 11:37:00,38.5,22.4,29.83,SSW,207,7.0,13.0,52,0.00,,---,0.03,VWS V14.01,2013-01-31 16:37:00,
2013-01-31 11:42:00,38.9,22.3,29.83,West,270,8.0,17.0,51,0.00,,---,0.03,VWS V14.01,2013-01-31 16:42:00,
2013-01-31 11:47:00,39.1,21.1,29.83,West,267,26.0,26.0,48,0.00,,---,0.03,VWS V14.01,2013-01-31 16:47:00,
2013-01-31 11:52:00,39.0,21.0,29.83,NNW,333,5.0,26.0,48,0.00,,---,0.03,VWS V14.01,2013-01-31 16:52:00,
2013-01-31 11:57:00,39.0,20.5,29.82,West,259,5.0,15.0,47,0.00,,---,0.03,VWS V14.01,2013-01-31 16:57:00,
2013-01-31 12:01:00,39.2,21.7,29.82,WSW,252,3.0,13.0,49,0.00,,---,0.03,VWS V14.01,2013-01-31 17:01:00,
2013-01-31 12:06:00,39.2,19.7,29.82,West,278,7.0,13.0,45,0.00,,---,0.03,VWS V14.01,2013-01-31 17:06:00,
2013-01-31 12:11:00,39.2,20.2,29.81,West,263,5.0,15.0,46,0.00,,---,0.03,VWS V14.01,2013-01-31 17:11:00,
2013-01-31 12:16:00,39.2,21.2,29.81,NW,325,3.0,14.0,48,0.00,,---,0.03,VWS V14.01,2013-01-31 17:16:00,
2013-01-31 12:21:00,39.3,20.8,29.81,NW,323,8.0,17.0,47,0.00,,---,0.03,VWS V14.01,2013-01-31 17:21:00,
2013-01-31 12:26:00,39.4,20.4,29.82,SW,232,8.0,14.0,46,0.00,,---,0.03,VWS V14.01,2013-01-31 17:26:00,
2013-01-31 12:31:00,39.3,20.3,29.82,WSW,251,2.0,18.0,46,0.00,,---,0.03,VWS V14.01,2013-01-31 17:31:00,
2013-01-31 12:36:00,39.2,20.7,29.82,West,274,6.0,20.0,47,0.00,,---,0.03,VWS V14.01,2013-01-31 17:36:00,
2013-01-31 12:41:00,39.2,21.2,29.81,WNW,296,9.0,16.0,48,0.00,,---,0.03,VWS V14.01,2013-01-31 17:41:00,
2013-01-31 12:46:00,39.2,21.2,29.82,West,269,9.0,11.0,48,0.00,,---,0.03,VWS V14.01,2013-01-31 17:46:00,
2013-01-31 12:51:00,39.3,21.3,29.81,WNW,284,9.0,16.0,48,0.00,,---,0.03,VWS V14.01,2013-01-31 17:51:00,
2013-01-31 12:56:00,39.3,21.3,29.81,SSE,148,11.0,17.0,48,0.00,,---,0.03,VWS V14.01,2013-01-31 17:56:00,
2013-01-31 13:01:00,39.6,20.5,29.81,NW,317,9.0,15.0,46,0.00,,---,0.03,VWS V14.01,2013-01-31 18:01:00,
2013-01-31 13:06:00,39.6,20.5,29.81,WNW,297,8.0,12.0,46,0.00,,---,0.03,VWS V14.01,2013-01-31 18:06:00,
2013-01-31 13:11:00,39.6,20.5,29.82,WNW,300,6.0,13.0,46,0.00,,---,0.03,VWS V14.01,2013-01-31 18:11:00,
2013-01-31 13:16:00,39.8,21.7,29.82,West,275,4.0,19.0,48,0.00,,---,0.03,VWS V14.01,2013-01-31 18:16:00,
2013-01-31 13:21:00,40.1,22.0,29.82,NW,319,3.0,12.0,48,0.00,,---,0.03,VWS V14.01,2013-01-31 18:21:00,
2013-01-31 13:26:00,40.2,22.1,29.82,WNW,287,4.0,11.0,48,0.00,,---,0.03,VWS V14.01,2013-01-31 18:26:00,
2013-01-31 13:31:00,40.4,21.8,29.81,WNW,283,10.0,21.0,47,0.00,,---,0.03,VWS V14.01,2013-01-31 18:31:00,
2013-01-31 13:36:00,40.6,21.5,29.82,NW,319,8.0,21.0,46,0.00,,---,0.03,VWS V14.01,2013-01-31 18:36:00,
2013-01-31 13:41:00,40.3,21.2,29.83,West,262,9.0,15.0,46,0.00,,---,0.03,VWS V14.01,2013-01-31 18:41:00,
2013-01-31 13:46:00,40.3,20.7,29.82,WSW,255,3.0,16.0,45,0.00,,---,0.03,VWS V14.01,2013-01-31 18:46:00,
2013-01-31 13:51:00,40.4,21.3,29.83,SW,236,9.0,17.0,46,0.00,,---,0.03,VWS V14.01,2013-01-31 18:51:00,
2013-01-31 13:56:00,40.8,22.1,29.83,NNW,340,4.0,14.0,47,0.00,,---,0.03,VWS V14.01,2013-01-31 18:56:00,
2013-01-31 14:01:00,41.1,21.4,29.83,SW,234,2.0,9.0,45,0.00,,---,0.03,VWS V14.01,2013-01-31 19:01:00,
2013-01-31 14:06:00,41.5,22.3,29.83,NNW,327,8.0,17.0,46,0.00,,---,0.03,VWS V14.01,2013-01-31 19:06:00,
2013-01-31 14:11:00,40.4,20.2,29.84,NW,317,4.0,16.0,44,0.00,,---,0.03,VWS V14.01,2013-01-31 19:11:00,
2013-01-31 14:16:00,39.7,20.6,29.84,WNW,295,7.0,15.0,46,0.00,,---,0.03,VWS V14.01,2013-01-31 19:16:00,
2013-01-31 14:21:00,38.6,20.6,29.84,NW,325,9.0,14.0,48,0.00,,---,0.03,VWS V14.01,2013-01-31 19:21:00,
2013-01-31 14:26:00,38.0,20.1,29.85,NNW,336,4.0,11.0,48,0.00,,---,0.03,VWS V14.01,2013-01-31 19:26:00,
2013-01-31 14:31:00,38.1,20.6,29.84,NW,309,2.0,13.0,49,0.00,,---,0.03,VWS V14.01,2013-01-31 19:31:00,
2013-01-31 14:36:00,38.2,20.7,29.84,West,275,8.0,10.0,49,0.00,,---,0.03,VWS V14.01,2013-01-31 19:36:00,
2013-01-31 14:41:00,38.3,21.8,29.84,WSW,254,5.0,10.0,51,0.00,,---,0.03,VWS V14.01,2013-01-31 19:41:00,
2013-01-31 14:46:00,38.5,21.5,29.85,West,270,1.0,11.0,50,0.00,,---,0.03,VWS V14.01,2013-01-31 19:46:00,
2013-01-31 14:51:00,38.6,20.6,29.84,SW,232,9.0,22.0,48,0.00,,---,0.03,VWS V14.01,2013-01-31 19:51:00,
2013-01-31 14:56:00,38.7,21.2,29.85,WNW,292,7.0,13.0,49,0.00,,---,0.03,VWS V14.01,2013-01-31 19:56:00,
2013-01-31 15:01:00,38.5,21.0,29.86,NW,321,6.0,10.0,49,0.00,,---,0.03,VWS V14.01,2013-01-31 20:01:00,
2013-01-31 15:06:00,38.3,20.8,29.86,NW,317,2.0,11.0,49,0.00,,---,0.03,VWS V14.01,2013-01-31 20:06:00,
2013-01-31 15:11:00,38.1,21.6,29.87,NW,312,5.0,11.0,51,0.00,,---,0.03,VWS V14.01,2013-01-31 20:11:00,
2013-01-31 15:16:00,37.9,21.4,29.87,NW,323,8.0,19.0,51,0.00,,---,0.03,VWS V14.01,2013-01-31 20:16:00,
2013-01-31 15:21:00,37.5,22.4,29.87,WNW,302,5.0,14.0,54,0.00,,---,0.03,VWS V14.01,2013-01-31 20:21:00,
2013-01-31 15:26:00,37.3,21.8,29.87,West,267,8.0,12.0,53,0.00,,---,0.03,VWS V14.01,2013-01-31 20:26:00,
2013-01-31 15:31:00,37.2,19.8,29.87,NW,306,7.0,10.0,49,0.00,,---,0.03,VWS V14.01,2013-01-31 20:31:00,
2013-01-31 15:36:00,37.0,19.6,29.88,West,281,5.0,12.0,49,0.00,,---,0.03,VWS V14.01,2013-01-31 20:36:00,
2013-01-31 15:41:00,37.0,19.6,29.88,NNE,20,9.0,15.0,49,0.00,,---,0.03,VWS V14.01,2013-01-31 20:41:00,
2013-01-31 15:46:00,36.9,20.0,29.88,NW,325,7.0,13.0,50,0.00,,---,0.03,VWS V14.01,2013-01-31 20:46:00,
2013-01-31 15:51:00,36.8,19.9,29.88,NNW,336,4.0,18.0,50,0.00,,---,0.03,VWS V14.01,2013-01-31 20:51:00,
2013-01-31 15:56:00,36.6,20.6,29.89,NW,320,9.0,14.0,52,0.00,,---,0.03,VWS V14.01,2013-01-31 20:56:00,
2013-01-31 16:01:00,36.6,20.2,29.89,NW,305,4.0,10.0,51,0.00,,---,0.03,VWS V14.01,2013-01-31 21:01:00,
2013-01-31 16:06:00,36.5,20.6,29.89,WSW,242,4.0,7.0,52,0.00,,---,0.03,VWS V14.01,2013-01-31 21:06:00,
2013-01-31 16:11:00,36.6,22.0,29.89,WSW,257,3.0,6.0,55,0.00,,---,0.03,VWS V14.01,2013-01-31 21:11:00,
2013-01-31 16:16:00,36.5,20.6,29.89,West,277,3.0,10.0,52,0.00,,---,0.03,VWS V14.01,2013-01-31 21:16:00,
2013-01-31 16:21:00,36.5,21.5,29.89,WNW,287,0.0,11.0,54,0.00,,---,0.03,VWS V14.01,2013-01-31 21:21:00,
2013-01-31 16:26:00,36.5,21.0,29.89,WSW,241,5.0,10.0,53,0.00,,---,0.03,VWS V14.01,2013-01-31 21:26:00,
2013-01-31 16:31:00,36.7,20.8,29.89,NW,315,3.0,10.0,52,0.00,,---,0.03,VWS V14.01,2013-01-31 21:31:00,
2013-01-31 16:36:00,36.7,21.2,29.89,West,272,5.0,7.0,53,0.00,,---,0.03,VWS V14.01,2013-01-31 21:36:00,
2013-01-31 16:41:00,36.8,20.4,29.89,NW,310,6.0,8.0,51,0.00,,---,0.03,VWS V14.01,2013-01-31 21:41:00,
2013-01-31 16:46:00,36.8,21.7,29.89,WNW,292,4.0,9.0,54,0.00,,---,0.03,VWS V14.01,2013-01-31 21:46:00,
2013-01-31 16:51:00,36.8,20.4,29.90,NW,311,3.0,6.0,51,0.00,,---,0.03,VWS V14.01,2013-01-31 21:51:00,
2013-01-31 16:56:00,36.8,20.8,29.89,WNW,287,1.0,6.0,52,0.00,,---,0.03,VWS V14.01,2013-01-31 21:56:00,
2013-01-31 17:01:00,36.7,21.2,29.89,West,279,3.0,6.0,53,0.00,,---,0.03,VWS V14.01,2013-01-31 22:01:00,
2013-01-31 17:06:00,36.7,22.9,29.90,West,273,2.0,5.0,57,0.00,,---,0.03,VWS V14.01,2013-01-31 22:06:00,
2013-01-31 17:11:00,36.7,20.3,29.90,NNW,329,5.0,10.0,51,0.00,,---,0.03,VWS V14.01,2013-01-31 22:11:00,
2013-01-31 17:16:00,36.7,21.6,29.90,North,5,3.0,9.0,54,0.00,,---,0.03,VWS V14.01,2013-01-31 22:16:00,
2013-01-31 17:21:00,36.7,21.6,29.90,SW,229,6.0,8.0,54,0.00,,---,0.03,VWS V14.01,2013-01-31 22:21:00,
2013-01-31 17:26:00,36.6,22.4,29.90,WNW,286,8.0,9.0,56,0.00,,---,0.03,VWS V14.01,2013-01-31 22:26:00,
2013-01-31 17:31:00,36.5,21.5,29.90,NNW,348,4.0,14.0,54,0.00,,---,0.03,VWS V14.01,2013-01-31 22:31:00,
2013-01-31 17:36:00,36.3,21.7,29.90,NNW,329,7.0,8.0,55,0.00,,---,0.03,VWS V14.01,2013-01-31 22:36:00,
2013-01-31 17:41:00,36.0,21.4,29.91,West,261,7.0,10.0,55,0.00,,---,0.03,VWS V14.01,2013-01-31 22:41:00,
2013-01-31 17:46:00,35.7,20.7,29.90,NW,315,4.0,12.0,54,0.00,,---,0.03,VWS V14.01,2013-01-31 22:46:00,
2013-01-31 17:51:00,35.5,20.5,29.90,West,275,2.0,11.0,54,0.00,,---,0.03,VWS V14.01,2013-01-31 22:51:00,
2013-01-31 17:56:00,35.4,20.9,29.90,West,266,2.0,5.0,55,0.00,,---,0.03,VWS V14.01,2013-01-31 22:56:00,
2013-01-31 18:00:00,35.2,20.2,29.90,NNW,329,4.0,7.0,54,0.00,,---,0.03,VWS V14.01,2013-01-31 23:00:00,
2013-01-31 18:05:00,35.1,21.0,29.91,SW,234,2.0,10.0,56,0.00,,---,0.03,VWS V14.01,2013-01-31 23:05:00,
2013-01-31 18:10:00,35.0,20.5,29.91,WNW,288,2.0,7.0,55,0.00,,---,0.03,VWS V14.01,2013-01-31 23:10:00,
2013-01-31 18:15:00,34.9,21.2,29.90,NW,305,1.0,10.0,57,0.00,,---,0.03,VWS V14.01,2013-01-31 23:15:00,
2013-01-31 18:20:00,34.8,21.1,29.91,WSW,241,3.0,7.0,57,0.00,,---,0.03,VWS V14.01,2013-01-31 23:20:00,
2013-01-31 18:25:00,34.7,21.5,29.91,North,5,4.0,9.0,58,0.00,,---,0.03,VWS V14.01,2013-01-31 23:25:00,
2013-01-31 18:30:00,34.7,21.0,29.91,WSW,240,1.0,7.0,57,0.00,,---,0.03,VWS V14.01,2013-01-31 23:30:00,
2013-01-31 18:35:00,34.6,21.0,29.92,North,355,3.0,6.0,57,0.00,,---,0.03,VWS V14.01,2013-01-31 23:35:00,
2013-01-31 18:40:00,34.6,21.0,29.91,NW,309,3.0,10.0,57,0.00,,---,0.03,VWS V14.01,2013-01-31 23:40:00,
2013-01-31 18:45:00,34.6,20.1,29.92,NNW,331,7.0,9.0,55,0.00,,---,0.03,VWS V14.01,2013-01-31 23:45:00,
2013-01-31 18:50:00,34.7,20.2,29.92,WSW,248,1.0,13.0,55,0.00,,---,0.03,VWS V14.01,2013-01-31 23:50:00,
2013-01-31 18:55:00,34.8,20.3,29.92,NNW,327,7.0,13.0,55,0.00,,---,0.03,VWS V14.01,2013-01-31 23:55:00,
2013-01-31 19:00:00,34.8,19.4,29.92,NNW,327,8.0,17.0,53,0.00,,---,0.03,VWS V14.01,2013-02-01 00:00:00,
2013-01-31 19:05:00,35.1,19.7,29.92,NW,312,3.0,19.0,53,0.00,,---,0.03,VWS V14.01,2013-02-01 00:05:00,
2013-01-31 19:10:00,34.9,19.5,29.92,NW,316,4.0,9.0,53,0.00,,---,0.03,VWS V14.01,2013-02-01 00:10:00,
2013-01-31 19:15:00,34.7,19.8,29.91,NW,318,5.0,13.0,54,0.00,,---,0.03,VWS V14.01,2013-02-01 00:15:00,
2013-01-31 19:20:00,34.7,20.2,29.91,NW,310,3.0,8.0,55,0.00,,---,0.03,VWS V14.01,2013-02-01 00:20:00,
2013-01-31 19:25:00,34.7,19.3,29.91,NW,313,1.0,7.0,53,0.00,,---,0.03,VWS V14.01,2013-02-01 00:25:00,
2013-01-31 19:30:00,34.8,19.0,29.91,West,278,5.0,11.0,52,0.00,,---,0.03,VWS V14.01,2013-02-01 00:30:00,
2013-01-31 19:35:00,34.7,19.8,29.91,NW,305,1.0,7.0,54,0.00,,---,0.03,VWS V14.01,2013-02-01 00:35:00,
2013-01-31 19:40:00,34.6,19.2,29.91,NW,321,4.0,11.0,53,0.00,,---,0.03,VWS V14.01,2013-02-01 00:40:00,
2013-01-31 19:45:00,34.7,19.8,29.91,WNW,285,3.0,6.0,54,0.00,,---,0.03,VWS V14.01,2013-02-01 00:45:00,
2013-01-31 19:50:00,34.7,19.3,29.91,NW,305,3.0,8.0,53,0.00,,---,0.03,VWS V14.01,2013-02-01 00:50:00,
2013-01-31 19:55:00,34.8,19.4,29.92,NW,305,6.0,13.0,53,0.00,,---,0.03,VWS V14.01,2013-02-01 00:55:00,
2013-01-31 20:00:00,35.0,19.6,29.92,WSW,245,7.0,11.0,53,0.00,,---,0.03,VWS V14.01,2013-02-01 01:00:00,
2013-01-31 20:05:00,35.0,19.6,29.92,West,259,4.0,14.0,53,0.00,,---,0.03,VWS V14.01,2013-02-01 01:05:00,
2013-01-31 20:10:00,34.9,20.8,29.92,WNW,282,0.0,12.0,56,0.00,,---,0.03,VWS V14.01,2013-02-01 01:10:00,
2013-01-31 20:15:00,34.8,19.9,29.92,WNW,290,6.0,11.0,54,0.00,,---,0.03,VWS V14.01,2013-02-01 01:15:00,
2013-01-31 20:20:00,34.7,20.2,29.92,West,269,2.0,5.0,55,0.00,,---,0.03,VWS V14.01,2013-02-01 01:20:00,
2013-01-31 20:25:00,34.6,19.7,29.92,WNW,303,1.0,5.0,54,0.00,,---,0.03,VWS V14.01,2013-02-01 01:25:00,
2013-01-31 20:30:00,34.6,20.1,29.92,WNW,298,2.0,6.0,55,0.00,,---,0.03,VWS V14.01,2013-02-01 01:30:00,
2013-01-31 20:35:00,34.5,20.0,29.92,WNW,284,1.0,3.0,55,0.00,,---,0.03,VWS V14.01,2013-02-01 01:35:00,
2013-01-31 20:40:00,34.4,20.3,29.92,WSW,255,2.0,10.0,56,0.00,,---,0.03,VWS V14.01,2013-02-01 01:40:00,
2013-01-31 20:45:00,34.3,20.2,29.92,North,355,3.0,6.0,56,0.00,,---,0.03,VWS V14.01,2013-02-01 01:45:00,
2013-01-31 20:50:00,34.4,19.9,29.92,SW,223,1.0,5.0,55,0.00,,---,0.03,VWS V14.01,2013-02-01 01:50:00,
2013-01-31 20:55:00,34.4,20.8,29.91,North,351,4.0,7.0,57,0.00,,---,0.03,VWS V14.01,2013-02-01 01:55:00,
2013-01-31 21:00:00,34.3,20.7,29.91,WSW,254,2.0,5.0,57,0.00,,---,0.03,VWS V14.01,2013-02-01 02:00:00,
2013-01-31 21:05:00,34.3,20.7,29.91,WNW,295,4.0,4.0,57,0.00,,---,0.03,VWS V14.01,2013-02-01 02:05:00,
2013-01-31 21:10:00,34.3,20.7,29.91,WSW,251,2.0,4.0,57,0.00,,---,0.03,VWS V14.01,2013-02-01 02:10:00,
2013-01-31 21:15:00,34.3,20.7,29.92,SW,230,0.0,4.0,57,0.00,,---,0.03,VWS V14.01,2013-02-01 02:15:00,
2013-01-31 21:20:00,34.3,20.7,29.92,SW,230,1.0,3.0,57,0.00,,---,0.03,VWS V14.01,2013-02-01 02:20:00,
2013-01-31 21:25:00,34.3,20.7,29.91,SW,230,0.0,3.0,57,0.00,,---,0.03,VWS V14.01,2013-02-01 02:25:00,
2013-01-31 21:30:00,34.3,20.7,29.92,SW,230,1.0,2.0,57,0.00,,---,0.03,VWS V14.01,2013-02-01 02:30:00,
2013-01-31 21:35:00,33.4,21.0,29.92,SW,230,0.0,3.0,60,0.00,,---,0.03,VWS V14.01,2013-02-01 02:35:00,
2013-01-31 21:40:00,33.2,21.2,29.92,SW,229,0.0,3.0,61,0.00,,---,0.03,VWS V14.01,2013-02-01 02:40:00,
2013-01-31 21:45:00,32.9,20.9,29.92,SW,229,1.0,1.0,61,0.00,,---,0.03,VWS V14.01,2013-02-01 02:45:00,
2013-01-31 21:50:00,32.8,20.9,29.92,SW,229,0.0,1.0,61,0.00,,---,0.03,VWS V14.01,2013-02-01 02:50:00,
2013-01-31 21:55:00,32.6,20.3,29.92,SW,229,0.0,1.0,60,0.00,,---,0.03,VWS V14.01,2013-02-01 02:55:00,
2013-01-31 22:00:00,32.5,20.2,29.92,SW,229,1.0,1.0,60,0.00,,---,0.03,VWS V14.01,2013-02-01 03:00:00,
2013-01-31 22:05:00,32.4,20.1,29.92,SW,229,0.0,1.0,60,0.00,,---,0.03,VWS V14.01,2013-02-01 03:05:00,
2013-01-31 22:10:00,32.2,20.7,29.92,SW,229,1.0,2.0,62,0.00,,---,0.03,VWS V14.01,2013-02-01 03:10:00,
2013-01-31 22:15:00,32.0,20.9,29.92,SW,229,0.0,3.0,63,0.00,,---,0.03,VWS V14.01,2013-02-01 03:15:00,
2013-01-31 22:20:00,31.9,20.8,29.91,South,190,1.0,3.0,63,0.00,,---,0.03,VWS V14.01,2013-02-01 03:20:00,
2013-01-31 22:25:00,31.9,20.8,29.92,South,190,2.0,2.0,63,0.00,,---,0.03,VWS V14.01,2013-02-01 03:25:00,
2013-01-31 22:30:00,31.8,20.7,29.92,South,190,0.0,2.0,63,0.00,,---,0.03,VWS V14.01,2013-02-01 03:30:00,
2013-01-31 22:35:00,31.7,20.6,29.92,South,190,0.0,1.0,63,0.00,,---,0.03,VWS V14.01,2013-02-01 03:35:00,
2013-01-31 22:40:00,31.5,21.1,29.92,South,190,3.0,3.0,65,0.00,,---,0.03,VWS V14.01,2013-02-01 03:40:00,
2013-01-31 22:45:00,31.2,21.2,29.92,South,170,0.0,5.0,66,0.00,,---,0.03,VWS V14.01,2013-02-01 03:45:00,
2013-01-31 22:50:00,31.0,21.0,29.92,South,170,1.0,2.0,66,0.00,,---,0.03,VWS V14.01,2013-02-01 03:50:00,
2013-01-31 22:55:00,30.7,20.7,29.92,South,170,0.0,3.0,66,0.00,,---,0.03,VWS V14.01,2013-02-01 03:55:00,
2013-01-31 23:00:00,30.6,21.3,29.91,South,171,0.0,1.0,68,0.00,,---,0.03,VWS V14.01,2013-02-01 04:00:00,
2013-01-31 23:05:00,30.5,20.9,29.91,South,171,0.0,1.0,67,0.00,,---,0.03,VWS V14.01,2013-02-01 04:05:00,
2013-01-31 23:10:00,30.5,20.5,29.91,South,170,1.0,2.0,66,0.00,,---,0.03,VWS V14.01,2013-02-01 04:10:00,
2013-01-31 23:15:00,30.5,20.9,29.91,South,170,0.0,2.0,67,0.00,,---,0.03,VWS V14.01,2013-02-01 04:15:00,
2013-01-31 23:20:00,30.4,20.8,29.90,South,171,2.0,3.0,67,0.00,,---,0.03,VWS V14.01,2013-02-01 04:20:00,
2013-01-31 23:25:00,30.3,21.0,29.90,SSE,154,1.0,4.0,68,0.00,,---,0.03,VWS V14.01,2013-02-01 04:25:00,
2013-01-31 23:30:00,30.3,21.0,29.90,SSE,154,2.0,2.0,68,0.00,,---,0.03,VWS V14.01,2013-02-01 04:30:00,
2013-01-31 23:35:00,30.3,21.0,29.90,SSE,154,2.0,3.0,68,0.00,,---,0.03,VWS V14.01,2013-02-01 04:35:00,
2013-01-31 23:40:00,30.2,21.3,29.90,SSE,154,2.0,4.0,69,0.00,,---,0.03,VWS V14.01,2013-02-01 04:40:00,
2013-01-31 23:45:00,30.1,21.5,29.90,SSE,154,2.0,3.0,70,0.00,,---,0.03,VWS V14.01,2013-02-01 04:45:00,
2013-01-31 23:50:00,30.1,21.5,29.90,SSE,154,2.0,3.0,70,0.00,,---,0.03,VWS V14.01,2013-02-01 04:50:00,
2013-01-31 23:55:00,30.1,21.5,29.89,SSE,166,4.0,4.0,70,0.00,,---,0.03,VWS V14.01,2013-02-01 04:55:00,